Time;durP1;ratioP1;P1;durP2;ratioP2;P2;SDS_P1;SDS_P2;PMS_P1;PMS_P2;Temp;Humidity;BMP_temperature;BMP_pressure;BME280_temperature;BME280_humidity;BME280_pressure;Samples;Min_cycle;Max_cycle;Signal;HPM_P1;HPM_P2
2023/06/25 00:02:20;;;;;;;;;13.00;9.33;;;;;24.06;43.49;101338.99;112226;1248;19383;-39
2023/06/25 00:04:48;;;;;;;;;9.50;9.50;;;;;24.06;43.56;101339.79;112146;1263;20117;-39
2023/06/25 00:07:16;;;;;;;;;12.00;10.33;;;;;24.05;43.68;101337.51;112067;1263;18658;-38
2023/06/25 00:09:44;;;;;;;;;10.00;10.00;;;;;24.04;43.45;101333.33;112093;1247;19459;-39
2023/06/25 00:12:11;;;;;;;;;8.50;8.50;;;;;24.02;43.70;101331.86;112262;1247;20135;-37
2023/06/25 00:14:39;;;;;;;;;9.00;9.00;;;;;24.02;43.73;101327.98;112116;1263;18611;-38
2023/06/25 00:17:06;;;;;;;;;15.00;10.00;;;;;24.00;43.70;101330.60;112261;1263;19214;-38
2023/06/25 00:19:33;;;;;;;;;9.67;8.33;;;;;24.01;43.69;101329.26;112083;1263;21439;-38
2023/06/25 00:22:01;;;;;;;;;12.00;10.00;;;;;24.00;43.72;101334.30;112237;1255;18762;-38
2023/06/25 00:24:28;;;;;;;;;9.67;9.33;;;;;23.97;43.71;101328.23;112152;1263;19560;-40
2023/06/25 00:26:55;;;;;;;;;9.00;8.33;;;;;23.96;43.78;101328.35;112288;1262;20092;-38
2023/06/25 00:29:23;;;;;;;;;12.00;12.00;;;;;23.95;43.86;101322.45;112158;1248;19520;-38
2023/06/25 00:31:50;;;;;;;;;15.00;12.00;;;;;23.94;43.84;101323.29;112131;1248;20721;-38
2023/06/25 00:34:19;;;;;;;;;12.00;10.00;;;;;23.94;44.06;101322.52;112189;1257;21498;-39
2023/06/25 00:36:51;;;;;;;;;13.00;12.00;;;;;23.94;43.98;101317.51;112238;1263;20005;-39
2023/06/25 00:39:19;;;;;;;;;15.00;12.00;;;;;23.92;44.00;101321.58;111858;1250;20848;-39
2023/06/25 00:41:46;;;;;;;;;12.00;12.00;;;;;23.91;44.18;101323.67;112251;1248;21689;-37
2023/06/25 00:44:13;;;;;;;;;13.00;12.00;;;;;23.89;44.26;101322.76;112102;1263;18765;-38
2023/06/25 00:46:41;;;;;;;;;12.00;10.00;;;;;23.90;44.26;101320.90;112250;1248;20859;-39
2023/06/25 00:49:08;;;;;;;;;9.00;9.00;;;;;23.88;44.28;101322.73;112128;1248;23075;-38
2023/06/25 00:51:36;;;;;;;;;12.50;12.50;;;;;23.86;44.17;101322.06;112304;1263;18644;-37
2023/06/25 00:54:04;;;;;;;;;9.00;9.00;;;;;23.86;44.26;101324.05;112107;1263;20712;-38
2023/06/25 00:56:32;;;;;;;;;10.00;9.00;;;;;23.85;44.15;101326.39;112028;1247;215692;-38
2023/06/25 00:59:00;;;;;;;;;13.00;11.00;;;;;23.84;44.39;101323.25;112085;1256;19753;-38
2023/06/25 01:01:28;;;;;;;;;15.00;12.00;;;;;23.84;44.36;101324.96;112199;1248;20863;-38
2023/06/25 01:03:55;;;;;;;;;11.00;11.00;;;;;23.83;44.23;101321.91;112327;1257;20934;-38
2023/06/25 01:06:29;;;;;;;;;11.00;10.00;;;;;23.83;44.12;101326.64;112175;1256;19832;-39
2023/06/25 01:08:56;;;;;;;;;10.00;10.00;;;;;23.82;44.27;101326.05;112272;1248;20819;-39
2023/06/25 01:11:23;;;;;;;;;15.00;13.00;;;;;23.80;44.26;101323.34;112085;1263;20284;-39
2023/06/25 01:13:51;;;;;;;;;10.00;10.00;;;;;23.80;44.33;101319.13;112236;1257;20144;-38
2023/06/25 01:16:18;;;;;;;;;12.00;10.00;;;;;23.79;44.21;101320.41;112132;1256;20796;-38
2023/06/25 01:18:45;;;;;;;;;16.00;12.00;;;;;23.78;44.22;101322.29;112269;1262;20336;-39
2023/06/25 01:21:13;;;;;;;;;17.00;16.50;;;;;23.78;44.39;101322.16;112171;1248;20013;-38
2023/06/25 01:23:40;;;;;;;;;13.00;12.33;;;;;23.75;44.20;101314.79;112186;1256;21120;-38
2023/06/25 01:26:07;;;;;;;;;15.00;12.50;;;;;23.74;44.47;101313.51;112182;1248;22001;-37
2023/06/25 01:28:35;;;;;;;;;13.00;12.00;;;;;23.71;44.37;101313.45;112090;1247;20005;-38
2023/06/25 01:31:03;;;;;;;;;12.00;11.00;;;;;23.70;44.46;101310.56;112214;1248;19318;-39
2023/06/25 01:33:31;;;;;;;;;11.00;11.00;;;;;23.70;44.33;101310.48;112257;1262;20112;-39
2023/06/25 01:35:58;;;;;;;;;12.33;11.00;;;;;23.69;44.31;101309.88;112144;1256;20072;-38
2023/06/25 01:38:25;;;;;;;;;28.00;22.00;;;;;23.67;44.34;101308.05;112248;1263;19558;-38
2023/06/25 01:40:53;;;;;;;;;15.00;14.00;;;;;23.67;44.55;101301.48;112219;1248;21564;-37
2023/06/25 01:43:20;;;;;;;;;11.00;11.00;;;;;23.65;44.45;101298.82;112240;1247;20029;-39
2023/06/25 01:45:47;;;;;;;;;11.00;11.00;;;;;23.63;44.62;101298.48;112295;1256;19441;-39
2023/06/25 01:48:15;;;;;;;;;9.00;9.00;;;;;23.63;44.61;101300.20;112178;1263;20145;-38
2023/06/25 01:50:42;;;;;;;;;11.00;9.00;;;;;23.61;44.55;101298.94;112333;1248;20053;-38
2023/06/25 01:53:09;;;;;;;;;14.00;11.00;;;;;23.61;44.77;101300.20;112200;1263;19378;-38
2023/06/25 01:55:36;;;;;;;;;13.00;11.00;;;;;23.59;44.76;101296.73;112335;1263;20143;-39
2023/06/25 01:58:04;;;;;;;;;11.00;11.00;;;;;23.58;44.55;101299.03;112159;1256;19955;-39
2023/06/25 02:00:31;;;;;;;;;12.00;11.00;;;;;23.58;44.68;101298.05;112305;1248;20856;-38
2023/06/25 02:02:58;;;;;;;;;12.50;12.00;;;;;23.57;44.73;101299.98;112142;1248;21502;-39
2023/06/25 02:05:26;;;;;;;;;12.00;11.00;;;;;23.56;44.94;101300.89;112272;1247;19978;-39
2023/06/25 02:07:53;;;;;;;;;11.00;11.00;;;;;23.56;44.82;101301.77;112156;1255;20861;-39
2023/06/25 02:10:20;;;;;;;;;29.00;23.00;;;;;23.55;44.88;101298.73;112232;1251;21523;-39
2023/06/25 02:12:48;;;;;;;;;20.00;19.33;;;;;23.55;44.94;101294.42;112175;1263;18761;-38
2023/06/25 02:15:15;;;;;;;;;19.50;16.00;;;;;23.55;45.03;101295.48;112295;1262;19405;-38
2023/06/25 02:17:43;;;;;;;;;12.50;12.00;;;;;23.54;45.07;101292.71;112179;1248;21404;-39
2023/06/25 02:20:10;;;;;;;;;13.00;12.00;;;;;23.51;45.00;101290.23;112192;1248;19915;-38
2023/06/25 02:22:37;;;;;;;;;15.00;15.00;;;;;23.51;45.26;101290.07;112200;1248;20882;-38
2023/06/25 02:25:05;;;;;;;;;12.00;12.00;;;;;23.49;45.19;101284.64;112071;1248;21685;-39
2023/06/25 02:27:32;;;;;;;;;11.33;11.00;;;;;23.49;45.09;101285.06;112197;1256;21124;-38
2023/06/25 02:29:59;;;;;;;;;11.50;11.00;;;;;23.48;45.28;101283.19;112071;1247;20871;-38
2023/06/25 02:32:27;;;;;;;;;20.00;19.00;;;;;23.47;45.17;101282.12;112211;1248;21529;-39
2023/06/25 02:34:54;;;;;;;;;12.50;12.00;;;;;23.46;45.10;101280.45;112142;1263;18687;-38
2023/06/25 02:37:21;;;;;;;;;12.00;12.00;;;;;23.44;45.23;101283.08;112239;1263;19423;-39
2023/06/25 02:39:49;;;;;;;;;13.00;13.00;;;;;23.43;45.14;101281.40;112125;1248;21564;-39
2023/06/25 02:42:16;;;;;;;;;15.50;13.00;;;;;23.43;45.24;101280.03;112272;1248;18642;-39
2023/06/25 02:44:43;;;;;;;;;14.50;12.50;;;;;23.44;45.47;101282.35;112148;1248;20775;-38
2023/06/25 02:47:10;;;;;;;;;12.50;12.50;;;;;23.44;45.37;101279.11;112316;1255;21545;-38
2023/06/25 02:49:38;;;;;;;;;18.00;16.00;;;;;23.42;45.35;101275.09;112146;1263;19046;-38
2023/06/25 02:52:05;;;;;;;;;19.00;16.00;;;;;23.42;45.49;101276.41;112135;1248;20988;-38
2023/06/25 02:54:32;;;;;;;;;12.00;12.00;;;;;23.41;45.39;101278.12;112165;1263;21464;-39
2023/06/25 02:57:00;;;;;;;;;12.00;12.00;;;;;23.39;45.60;101279.61;112110;1263;19916;-39
2023/06/25 02:59:27;;;;;;;;;15.00;13.00;;;;;23.38;45.57;101281.02;112193;1263;20911;-39
2023/06/25 03:01:54;;;;;;;;;16.00;12.50;;;;;23.39;45.64;101285.11;112098;1263;22634;-40
2023/06/25 03:04:22;;;;;;;;;15.50;13.00;;;;;23.39;45.63;101285.91;112261;1262;18802;-38
2023/06/25 03:06:49;;;;;;;;;13.00;12.33;;;;;23.38;45.75;101290.20;112141;1251;22006;-41
2023/06/25 03:09:16;;;;;;;;;15.00;13.00;;;;;23.35;45.57;101289.20;112260;1263;20148;-37
2023/06/25 03:11:44;;;;;;;;;16.00;14.00;;;;;23.33;45.69;101288.23;112090;1248;20004;-38
2023/06/25 03:14:11;;;;;;;;;15.00;12.50;;;;;23.31;45.96;101286.30;112265;1251;22062;-38
2023/06/25 03:16:38;;;;;;;;;14.00;12.00;;;;;23.31;45.83;101288.70;112130;1247;21577;-38
2023/06/25 03:19:05;;;;;;;;;11.67;11.33;;;;;23.30;45.91;101289.83;112319;1247;19820;-38
2023/06/25 03:21:33;;;;;;;;;16.00;14.00;;;;;23.30;46.07;101285.52;112190;1262;19417;-38
2023/06/25 03:24:00;;;;;;;;;18.00;15.00;;;;;23.30;45.94;101279.15;112168;1247;21559;-38
2023/06/25 03:26:27;;;;;;;;;30.00;27.00;;;;;23.29;46.06;101279.73;112174;1248;20011;-38
2023/06/25 03:28:56;;;;;;;;;21.00;18.00;;;;;23.29;46.19;101275.91;112075;1263;19428;-41
2023/06/25 03:31:23;;;;;;;;;15.67;15.00;;;;;23.26;46.25;101278.80;112148;1248;20012;-39
2023/06/25 03:33:50;;;;;;;;;15.00;14.00;;;;;22.82;47.16;101283.60;112164;1248;20022;-38
2023/06/25 03:36:17;;;;;;;;;15.00;14.50;;;;;22.42;47.90;101285.50;112145;1248;20859;-38
2023/06/25 03:38:45;;;;;;;;;16.50;16.50;;;;;22.19;48.82;101285.21;112080;1263;20295;-38
2023/06/25 03:41:12;;;;;;;;;19.00;18.00;;;;;22.09;49.08;101281.38;112206;1248;20042;-38
2023/06/25 03:43:39;;;;;;;;;27.00;24.00;;;;;22.07;49.54;101278.69;112114;1262;19383;-38
2023/06/25 03:46:07;;;;;;;;;17.00;16.00;;;;;22.05;49.83;101279.60;112236;1248;20336;-37
2023/06/25 03:48:34;;;;;;;;;18.00;15.00;;;;;21.98;50.13;101281.29;112120;1262;19435;-37
2023/06/25 03:51:01;;;;;;;;;17.33;15.00;;;;;21.95;50.32;101282.38;112232;1248;20857;-37
2023/06/25 03:53:29;;;;;;;;;17.00;13.50;;;;;21.94;50.41;101285.45;112136;1247;21870;-38
2023/06/25 03:55:56;;;;;;;;;16.00;14.50;;;;;21.97;50.68;101285.20;112268;1256;19915;-38
2023/06/25 03:58:24;;;;;;;;;37.67;33.33;;;;;21.97;50.67;101280.30;112097;1248;19328;-38
2023/06/25 04:00:51;;;;;;;;;33.00;28.00;;;;;21.95;50.89;101284.36;112255;1248;21427;-38
2023/06/25 04:03:18;;;;;;;;;28.33;23.33;;;;;21.96;51.12;101284.33;112164;1263;19773;-40
2023/06/25 04:05:46;;;;;;;;;21.00;20.33;;;;;21.93;51.10;101283.73;112284;1248;21516;-39
2023/06/25 04:08:13;;;;;;;;;19.00;14.50;;;;;21.88;51.36;101284.23;112139;1263;20126;-38
2023/06/25 04:10:40;;;;;;;;;26.00;18.00;;;;;21.84;51.36;101281.73;112170;1248;21059;-39
2023/06/25 04:13:08;;;;;;;;;20.00;15.00;;;;;21.85;51.51;101285.17;112153;1248;19479;-38
2023/06/25 04:15:35;;;;;;;;;22.33;18.00;;;;;21.85;51.66;101283.51;112086;1263;20120;-38
2023/06/25 04:18:02;;;;;;;;;33.00;27.00;;;;;21.85;51.96;101283.67;112225;1263;20266;-38
2023/06/25 04:20:30;;;;;;;;;29.00;24.00;;;;;21.93;51.82;101283.70;112086;1248;22123;-39
2023/06/25 04:22:57;;;;;;;;;27.00;26.00;;;;;21.96;51.63;101279.54;112207;1263;22755;-38
2023/06/25 04:25:24;;;;;;;;;20.00;18.00;;;;;21.86;51.90;101276.50;112111;1263;18821;-39
2023/06/25 04:27:52;;;;;;;;;17.00;15.00;;;;;21.87;52.05;101278.76;112216;1262;20756;-38
2023/06/25 04:30:19;;;;;;;;;17.00;15.00;;;;;21.90;52.01;101282.04;112124;1248;21853;-38
2023/06/25 04:32:49;;;;;;;;;17.00;15.50;;;;;21.83;52.20;101276.59;112263;1248;20425;-40
2023/06/25 04:35:16;;;;;;;;;17.50;17.50;;;;;21.65;52.57;101277.33;112243;1263;20764;-39
2023/06/25 04:37:44;;;;;;;;;17.00;17.00;;;;;21.54;52.89;101275.31;112123;1248;21555;-39
2023/06/25 04:40:11;;;;;;;;;19.00;17.00;;;;;21.57;52.88;101272.62;112269;1256;20146;-38
2023/06/25 04:42:38;;;;;;;;;20.00;20.00;;;;;21.53;53.20;101271.35;112126;1263;19415;-38
2023/06/25 04:45:06;;;;;;;;;19.00;14.00;;;;;21.49;53.45;101271.66;112260;1263;20013;-38
2023/06/25 04:47:33;;;;;;;;;22.00;19.00;;;;;21.53;53.39;101270.88;112148;1251;20033;-38
2023/06/25 04:50:00;;;;;;;;;17.00;17.00;;;;;21.47;53.71;101276.77;112258;1248;20936;-37
2023/06/25 04:52:28;;;;;;;;;30.00;26.00;;;;;21.53;53.94;101277.94;112126;1247;21652;-38
2023/06/25 04:54:55;;;;;;;;;29.67;25.33;;;;;21.58;53.90;101275.41;112198;1263;18908;-38
2023/06/25 04:57:22;;;;;;;;;22.00;21.00;;;;;21.54;53.93;101276.95;112196;1248;20871;-39
2023/06/25 04:59:50;;;;;;;;;18.50;16.00;;;;;21.53;54.22;101278.17;112091;1248;22853;-38
2023/06/25 05:02:17;;;;;;;;;19.00;17.00;;;;;21.49;54.44;101272.03;112215;1263;18768;-38
2023/06/25 05:04:45;;;;;;;;;19.00;16.00;;;;;21.54;54.46;101268.52;112046;1248;20860;-38
2023/06/25 05:07:12;;;;;;;;;25.00;23.00;;;;;21.62;54.29;101269.14;112183;1263;20117;-37
2023/06/25 05:09:39;;;;;;;;;50.00;43.50;;;;;21.65;54.15;101268.46;112136;1263;19964;-38
2023/06/25 05:12:07;;;;;;;;;47.50;42.50;;;;;21.71;54.36;101261.98;112228;1263;19718;-38
2023/06/25 05:14:34;;;;;;;;;45.00;39.00;;;;;21.65;54.50;101259.91;112127;1263;20151;-38
2023/06/25 05:17:01;;;;;;;;;40.00;34.50;;;;;21.68;54.51;101261.02;112250;1263;18943;-37
2023/06/25 05:19:29;;;;;;;;;35.67;29.33;;;;;21.71;54.34;101257.38;112127;1248;19784;-39
2023/06/25 05:21:56;;;;;;;;;25.00;24.50;;;;;21.73;54.54;101261.41;112249;1263;20123;-38
2023/06/25 05:24:23;;;;;;;;;30.67;26.67;;;;;21.72;54.39;101259.34;112131;1247;20182;-38
2023/06/25 05:26:51;;;;;;;;;24.00;23.00;;;;;21.72;54.46;101259.97;112264;1247;22109;-39
2023/06/25 05:29:18;;;;;;;;;26.00;23.50;;;;;21.82;54.54;101256.77;112114;1263;22748;-38
2023/06/25 05:31:45;;;;;;;;;26.00;24.00;;;;;21.87;54.45;101254.14;112265;1263;21116;-38
2023/06/25 05:34:13;;;;;;;;;19.50;17.00;;;;;21.88;54.45;101255.66;112151;1262;19475;-38
2023/06/25 05:36:40;;;;;;;;;22.00;17.00;;;;;21.92;54.20;101259.45;112232;1263;20103;-38
2023/06/25 05:39:08;;;;;;;;;23.00;23.00;;;;;21.91;54.33;101259.17;112135;1248;20029;-39
2023/06/25 05:41:35;;;;;;;;;20.00;18.33;;;;;21.96;54.08;101258.08;112098;1263;19448;-39
2023/06/25 05:44:02;;;;;;;;;21.00;19.33;;;;;21.97;54.19;101258.63;112166;1263;20142;-39
2023/06/25 05:46:30;;;;;;;;;21.00;19.00;;;;;21.96;54.18;101256.48;112026;1263;18833;-39
2023/06/25 05:48:57;;;;;;;;;20.00;17.00;;;;;22.03;54.23;101256.41;112186;1263;21976;-39
2023/06/25 05:51:24;;;;;;;;;17.50;17.00;;;;;22.13;53.98;101259.09;112115;1248;21571;-38
2023/06/25 05:53:54;;;;;;;;;15.00;14.33;;;;;22.19;54.05;101262.45;112207;1263;19892;-39
2023/06/25 05:56:21;;;;;;;;;27.00;25.00;;;;;22.26;53.79;101261.09;112239;1263;19429;-38
2023/06/25 05:58:48;;;;;;;;;23.50;22.00;;;;;22.30;53.53;101257.52;112159;1248;21522;-38
2023/06/25 06:01:16;;;;;;;;;27.50;25.00;;;;;22.37;53.32;101258.65;112269;1248;20350;-38
2023/06/25 06:03:43;;;;;;;;;23.50;22.00;;;;;22.38;53.44;101251.88;112167;1251;21162;-39
2023/06/25 06:06:10;;;;;;;;;21.67;16.67;;;;;22.37;53.70;101250.02;112241;1257;21906;-39
2023/06/25 06:08:38;;;;;;;;;17.50;15.00;;;;;22.39;53.37;101245.19;112132;1247;20457;-39
2023/06/25 06:11:05;;;;;;;;;16.33;14.00;;;;;22.42;53.28;101241.91;112082;1263;19377;-40
2023/06/25 06:13:32;;;;;;;;;17.00;14.00;;;;;22.58;53.20;101243.52;112236;1248;21573;-39
2023/06/25 06:16:00;;;;;;;;;12.00;11.00;;;;;22.77;52.83;101243.91;112060;1263;18730;-38
2023/06/25 06:18:27;;;;;;;;;17.00;14.00;;;;;22.76;53.12;101243.30;112206;1263;19398;-38
2023/06/25 06:20:54;;;;;;;;;12.00;12.00;;;;;22.83;53.06;101246.30;112099;1255;20493;-39
2023/06/25 06:23:22;;;;;;;;;15.67;14.00;;;;;22.80;53.21;101245.88;112225;1255;19581;-38
2023/06/25 06:25:49;;;;;;;;;14.00;12.00;;;;;22.87;53.24;101246.04;112110;1257;22028;-37
2023/06/25 06:28:16;;;;;;;;;20.00;14.00;;;;;22.85;52.94;101246.08;112255;1248;21555;-37
2023/06/25 06:30:44;;;;;;;;;14.00;14.00;;;;;22.87;52.78;101244.73;112101;1248;19796;-39
2023/06/25 06:33:11;;;;;;;;;17.00;15.67;;;;;22.95;52.74;101242.75;112219;1263;20957;-39
2023/06/25 06:35:38;;;;;;;;;15.00;14.50;;;;;23.07;52.65;101246.79;112110;1262;20279;-39
2023/06/25 06:38:06;;;;;;;;;15.00;14.00;;;;;23.08;52.83;101241.17;112257;1248;18787;-39
2023/06/25 06:40:33;;;;;;;;;11.50;11.00;;;;;22.99;52.97;101243.57;112118;1263;21165;-40
2023/06/25 06:43:00;;;;;;;;;19.00;15.00;;;;;23.05;52.93;101245.16;112195;1248;21579;-38
2023/06/25 06:45:28;;;;;;;;;14.67;14.00;;;;;23.22;52.76;101246.69;112181;1248;20038;-39
2023/06/25 06:47:55;;;;;;;;;13.50;13.00;;;;;23.27;53.05;101243.05;112062;1247;19665;-38
2023/06/25 06:50:22;;;;;;;;;14.33;12.33;;;;;23.30;52.87;101236.49;112207;1248;21588;-38
2023/06/25 06:52:50;;;;;;;;;14.00;11.00;;;;;23.33;53.05;101234.62;112077;1247;20040;-38
2023/06/25 06:55:17;;;;;;;;;15.00;15.00;;;;;23.38;52.91;101234.72;112211;1263;20778;-38
2023/06/25 06:57:44;;;;;;;;;11.00;11.00;;;;;23.42;52.81;101236.20;112137;1263;21480;-38
2023/06/25 07:00:11;;;;;;;;;12.50;12.50;;;;;23.44;52.39;101238.20;112215;1248;20029;-38
2023/06/25 07:02:39;;;;;;;;;11.00;9.00;;;;;23.46;52.27;101235.45;112099;1248;22020;-38
2023/06/25 07:05:06;;;;;;;;;12.00;12.00;;;;;23.57;52.06;101234.31;112271;1248;21831;-38
2023/06/25 07:07:33;;;;;;;;;14.00;12.00;;;;;23.62;51.85;101230.62;112125;1263;19864;-39
2023/06/25 07:10:01;;;;;;;;;13.00;11.00;;;;;23.58;51.77;101230.48;112252;1263;19532;-39
2023/06/25 07:12:28;;;;;;;;;15.00;12.00;;;;;23.69;51.46;101229.96;112127;1247;21357;-41
2023/06/25 07:14:56;;;;;;;;;11.00;11.00;;;;;23.76;51.42;101226.61;112288;1248;18856;-39
2023/06/25 07:17:24;;;;;;;;;12.50;12.00;;;;;23.82;51.41;101228.78;112175;1251;20842;-39
2023/06/25 07:19:51;;;;;;;;;13.00;12.67;;;;;23.96;51.33;101227.20;112245;1263;21559;-39
2023/06/25 07:22:18;;;;;;;;;15.00;13.00;;;;;23.95;50.67;101227.83;112118;1248;20028;-39
2023/06/25 07:24:46;;;;;;;;;11.33;11.33;;;;;23.90;50.23;101221.77;112281;1248;19417;-39
2023/06/25 07:27:13;;;;;;;;;13.00;12.00;;;;;24.04;50.09;101218.80;112138;1263;20471;-40
2023/06/25 07:29:40;;;;;;;;;12.00;11.00;;;;;24.12;49.97;101218.05;112270;1263;20062;-41
2023/06/25 07:32:08;;;;;;;;;13.00;12.00;;;;;24.10;49.79;101214.36;112131;1263;20731;-38
2023/06/25 07:34:35;;;;;;;;;11.00;11.00;;;;;24.13;49.68;101213.64;112088;1263;20448;-39
2023/06/25 07:37:02;;;;;;;;;9.00;8.67;;;;;24.17;49.40;101213.16;112183;1256;20050;-38
2023/06/25 07:39:30;;;;;;;;;12.00;11.00;;;;;24.17;49.70;101214.80;112047;1263;19257;-40
2023/06/25 07:41:57;;;;;;;;;11.33;9.67;;;;;24.14;49.46;101211.47;112164;1248;23025;-42
2023/06/25 07:44:24;;;;;;;;;12.00;11.00;;;;;24.23;49.23;101210.59;112051;1256;19859;-40
2023/06/25 07:46:52;;;;;;;;;12.00;10.00;;;;;24.35;49.10;101207.66;112196;1248;19774;-39
2023/06/25 07:49:19;;;;;;;;;12.00;12.00;;;;;24.50;48.86;101209.44;112102;1263;20299;-39
2023/06/25 07:51:46;;;;;;;;;15.00;10.00;;;;;24.42;48.42;101203.30;112253;1263;20213;-40
2023/06/25 07:54:14;;;;;;;;;12.50;11.00;;;;;24.45;48.22;101205.11;112119;1257;20821;-38
2023/06/25 07:56:44;;;;;;;;;47.00;38.50;;;;;24.51;48.34;101200.35;112264;1263;20100;-39
2023/06/25 07:59:11;;;;;;;;;77.33;60.33;;;;;24.47;48.79;101201.13;112248;1248;20097;-38
2023/06/25 08:01:38;;;;;;;;;73.00;56.00;;;;;24.42;48.71;101202.48;112144;1263;19503;-39
2023/06/25 08:04:05;;;;;;;;;91.50;65.00;;;;;24.37;48.86;101201.89;112273;1251;21577;-42
2023/06/25 08:06:33;;;;;;;;;74.00;55.00;;;;;24.35;48.95;101203.89;112149;1263;18568;-41
2023/06/25 08:09:00;;;;;;;;;66.33;48.00;;;;;24.34;49.33;101199.96;112099;1263;20086;-39
2023/06/25 08:11:27;;;;;;;;;64.00;49.00;;;;;24.38;49.16;101196.38;112172;1263;21438;-38
2023/06/25 08:13:55;;;;;;;;;61.50;44.50;;;;;24.37;49.33;101196.07;112074;1263;18610;-39
2023/06/25 08:16:23;;;;;;;;;53.00;42.33;;;;;24.38;49.39;101194.90;112239;1263;19417;-37
2023/06/25 08:18:50;;;;;;;;;45.33;35.33;;;;;24.40;49.72;101191.21;112130;1257;21515;-38
2023/06/25 08:21:18;;;;;;;;;28.00;24.00;;;;;24.44;49.78;101190.92;112151;1263;18979;-39
2023/06/25 08:23:45;;;;;;;;;19.67;17.00;;;;;24.52;49.74;101186.05;112108;1263;19635;-39
2023/06/25 08:26:15;;;;;;;;;14.50;13.00;;;;;24.89;48.75;101188.63;112102;1262;22862;-38
2023/06/25 08:28:43;;;;;;;;;16.00;13.00;;;;;25.00;48.14;101183.93;112048;1264;18847;-39
2023/06/25 08:31:10;;;;;;;;;10.00;10.00;;;;;24.91;47.88;101189.19;111946;1248;21157;-39
2023/06/25 08:33:37;;;;;;;;;16.00;13.00;;;;;24.88;47.79;101191.39;112102;1256;21598;-39
2023/06/25 08:36:05;;;;;;;;;13.00;12.00;;;;;24.91;48.05;101184.75;111988;1248;20108;-38
2023/06/25 08:38:32;;;;;;;;;16.67;16.00;;;;;25.03;47.54;101180.73;112126;1264;22407;-41
2023/06/25 08:41:00;;;;;;;;;16.00;15.00;;;;;24.93;47.64;101180.02;111965;1264;20188;-39
2023/06/25 08:43:27;;;;;;;;;10.50;10.50;;;;;24.94;47.46;101178.58;112106;1264;19010;-39
2023/06/25 08:45:54;;;;;;;;;13.50;12.50;;;;;25.03;47.53;101179.85;112006;1264;19519;-40
2023/06/25 08:48:22;;;;;;;;;14.00;12.50;;;;;25.03;47.68;101178.52;112133;1247;22757;-39
2023/06/25 08:50:49;;;;;;;;;12.67;12.67;;;;;25.08;47.25;101174.41;111967;1257;20329;-39
2023/06/25 08:53:16;;;;;;;;;13.00;13.00;;;;;25.16;46.67;101175.27;112181;1264;19512;-39
2023/06/25 08:55:44;;;;;;;;;13.00;12.00;;;;;25.14;46.42;101175.63;111979;1264;20486;-39
2023/06/25 08:58:11;;;;;;;;;11.00;11.00;;;;;25.12;46.28;101171.31;112156;1264;19031;-39
2023/06/25 09:00:38;;;;;;;;;13.00;12.00;;;;;25.23;45.52;101171.63;112030;1264;19910;-40
2023/06/25 09:03:06;;;;;;;;;12.67;12.00;;;;;25.17;44.72;101176.30;112181;1264;20070;-39
2023/06/25 09:05:33;;;;;;;;;12.67;10.00;;;;;25.18;44.52;101169.84;112029;1264;20032;-39
2023/06/25 09:08:01;;;;;;;;;9.00;9.00;;;;;25.17;44.46;101174.02;112153;1248;20831;-40
2023/06/25 09:10:31;;;;;;;;;12.00;12.00;;;;;25.19;44.25;101177.32;112018;1247;21487;-40
2023/06/25 09:12:58;;;;;;;;;10.67;10.67;;;;;25.11;44.38;101179.14;112015;1256;19845;-40
2023/06/25 09:15:26;;;;;;;;;13.00;12.00;;;;;24.98;44.78;101178.52;112145;1263;20650;-38
2023/06/25 09:17:53;;;;;;;;;10.00;10.00;;;;;24.98;44.84;101177.06;112047;1264;20477;-40
2023/06/25 09:20:20;;;;;;;;;8.50;8.50;;;;;24.99;44.56;101172.36;112048;1248;19971;-39
2023/06/25 09:22:48;;;;;;;;;10.00;9.00;;;;;25.12;43.95;101174.45;112083;1263;19528;-40
2023/06/25 09:25:15;;;;;;;;;14.00;10.00;;;;;25.36;43.36;101172.27;112045;1263;20281;-39
2023/06/25 09:27:43;;;;;;;;;12.00;10.00;;;;;25.34;43.57;101171.84;112186;1248;20197;-39
2023/06/25 09:30:10;;;;;;;;;13.00;12.00;;;;;25.25;43.82;101175.35;112203;1248;19468;-39
2023/06/25 09:32:38;;;;;;;;;17.00;16.00;;;;;25.42;43.87;101171.46;112167;1247;21435;-38
2023/06/25 09:35:05;;;;;;;;;24.50;22.00;;;;;25.40;43.81;101170.35;112040;1263;20938;-38
2023/06/25 09:37:32;;;;;;;;;20.33;18.67;;;;;25.45;43.51;101172.45;112178;1262;19651;-40
2023/06/25 09:40:00;;;;;;;;;25.00;24.00;;;;;25.38;43.67;101170.79;112090;1248;21398;-39
2023/06/25 09:42:27;;;;;;;;;18.00;18.00;;;;;25.38;43.77;101167.45;112190;1251;20024;-39
2023/06/25 09:44:54;;;;;;;;;14.00;14.00;;;;;25.42;43.72;101162.94;112109;1263;19431;-39
2023/06/25 09:47:22;;;;;;;;;13.00;12.00;;;;;25.43;44.12;101164.46;112265;1263;20276;-39
2023/06/25 09:49:49;;;;;;;;;15.33;14.00;;;;;25.25;44.39;101162.86;112126;1250;20005;-39
2023/06/25 09:52:16;;;;;;;;;14.00;14.00;;;;;25.12;44.81;101162.52;112242;1248;20915;-38
2023/06/25 09:54:44;;;;;;;;;10.00;10.00;;;;;25.14;45.04;101163.17;112129;1247;21486;-39
2023/06/25 09:57:11;;;;;;;;;10.00;9.67;;;;;25.13;45.02;101164.83;112264;1262;19939;-40
2023/06/25 09:59:38;;;;;;;;;8.00;8.00;;;;;25.07;44.76;101160.24;112126;1263;20704;-40
2023/06/25 10:02:06;;;;;;;;;12.00;10.00;;;;;25.04;44.72;101154.40;112271;1248;21529;-40
2023/06/25 10:04:33;;;;;;;;;10.00;10.00;;;;;25.02;44.53;101157.17;112139;1257;19624;-40
2023/06/25 10:07:00;;;;;;;;;9.33;9.33;;;;;25.17;44.04;101156.67;112203;1248;22286;-40
2023/06/25 10:09:28;;;;;;;;;10.00;10.00;;;;;25.19;43.75;101156.04;112140;1251;22738;-40
2023/06/25 10:11:55;;;;;;;;;10.50;9.50;;;;;25.18;43.44;101153.52;112147;1263;19805;-37
2023/06/25 10:14:23;;;;;;;;;9.00;9.00;;;;;25.10;43.63;101157.45;112165;1256;21058;-38
2023/06/25 10:16:50;;;;;;;;;10.00;9.67;;;;;25.02;43.72;101157.23;112044;1247;21472;-38
2023/06/25 10:19:17;;;;;;;;;13.00;10.00;;;;;24.99;43.99;101158.90;112209;1263;19500;-39
2023/06/25 10:21:45;;;;;;;;;10.00;9.50;;;;;24.97;44.03;101155.81;112086;1263;19425;-40
2023/06/25 10:24:12;;;;;;;;;11.00;10.00;;;;;24.96;44.01;101153.46;112212;1263;20329;-40
2023/06/25 10:26:39;;;;;;;;;9.50;9.00;;;;;24.92;43.89;101153.05;112126;1263;18638;-38
2023/06/25 10:29:06;;;;;;;;;7.50;7.50;;;;;24.87;43.92;101150.51;112264;1247;21977;-40
2023/06/25 10:31:34;;;;;;;;;9.00;7.00;;;;;24.84;43.91;101150.83;112112;1248;21535;-39
2023/06/25 10:34:01;;;;;;;;;10.00;10.00;;;;;24.81;43.63;101148.63;112259;1263;19013;-39
2023/06/25 10:36:28;;;;;;;;;8.50;8.50;;;;;24.80;43.83;101146.14;112137;1255;20953;-39
2023/06/25 10:38:58;;;;;;;;;10.67;9.00;;;;;24.82;43.71;101142.81;112263;1263;20169;-39
2023/06/25 10:41:25;;;;;;;;;13.00;11.33;;;;;24.84;43.68;101145.95;112113;1248;19599;-40
2023/06/25 10:43:53;;;;;;;;;10.00;10.00;;;;;24.83;43.75;101145.36;112166;1247;20901;-38
2023/06/25 10:46:20;;;;;;;;;11.50;11.00;;;;;24.85;43.83;101140.02;112061;1262;20105;-39
2023/06/25 10:48:47;;;;;;;;;9.00;9.00;;;;;24.89;44.09;101136.09;112248;1247;21157;-38
2023/06/25 10:51:14;;;;;;;;;9.50;9.00;;;;;24.92;44.11;101133.85;112102;1263;20967;-39
2023/06/25 10:53:42;;;;;;;;;10.00;10.00;;;;;24.98;44.02;101134.75;112233;1248;19954;-40
2023/06/25 10:56:09;;;;;;;;;11.00;10.00;;;;;25.06;43.36;101130.34;112103;1262;19015;-40
2023/06/25 10:58:36;;;;;;;;;11.33;10.00;;;;;25.07;43.47;101126.30;112237;1251;20835;-40
2023/06/25 11:01:04;;;;;;;;;10.00;10.00;;;;;25.06;43.74;101124.27;112105;1263;20233;-39
2023/06/25 11:03:31;;;;;;;;;10.00;9.00;;;;;25.04;43.88;101125.68;112260;1263;18887;-39